sensor_id;sensor_type;location;lat;lon;timestamp;pressure;altitude;pressure_sealevel;temperature;humidity
41596;BME280;27283;52.504;13.358;2024-02-14T00:00:47;101514.88;;;5.78;74.36
41596;BME280;27283;52.504;13.358;2024-02-14T00:03:37;101518.28;;;6.04;73.22
41596;BME280;27283;52.504;13.358;2024-02-14T00:06:09;101513.47;;;6.20;71.16
41596;BME280;27283;52.504;13.358;2024-02-14T00:08:42;101515.91;;;6.24;70.46
41596;BME280;27283;52.504;13.358;2024-02-14T00:11:17;101511.72;;;5.73;72.59
41596;BME280;27283;52.504;13.358;2024-02-14T00:13:50;101512.44;;;5.99;71.79
41596;BME280;27283;52.504;13.358;2024-02-14T00:16:22;101516.47;;;5.80;71.88
41596;BME280;27283;52.504;13.358;2024-02-14T00:18:55;101515.91;;;6.24;70.44
41596;BME280;27283;52.504;13.358;2024-02-14T00:21:27;101516.09;;;5.74;73.33
41596;BME280;27283;52.504;13.358;2024-02-14T00:24:00;101516.47;;;6.16;70.58
41596;BME280;27283;52.504;13.358;2024-02-14T00:26:36;101522.78;;;6.15;69.86
41596;BME280;27283;52.504;13.358;2024-02-14T00:29:08;101518.75;;;5.98;70.93
41596;BME280;27283;52.504;13.358;2024-02-14T00:31:40;101514.19;;;5.87;71.63
41596;BME280;27283;52.504;13.358;2024-02-14T00:34:13;101517.28;;;6.05;71.04
41596;BME280;27283;52.504;13.358;2024-02-14T00:36:45;101513.09;;;5.90;71.44
41596;BME280;27283;52.504;13.358;2024-02-14T00:39:18;101519.25;;;6.03;70.66
41596;BME280;27283;52.504;13.358;2024-02-14T00:41:53;101519.59;;;5.74;71.53
41596;BME280;27283;52.504;13.358;2024-02-14T00:44:25;101521.81;;;5.80;71.96
41596;BME280;27283;52.504;13.358;2024-02-14T00:46:57;101520.34;;;5.52;72.49
41596;BME280;27283;52.504;13.358;2024-02-14T00:49:34;101522.09;;;5.64;72.57
41596;BME280;27283;52.504;13.358;2024-02-14T00:52:08;101524.19;;;5.48;72.50
41596;BME280;27283;52.504;13.358;2024-02-14T00:54:40;101524.59;;;5.79;71.72
41596;BME280;27283;52.504;13.358;2024-02-14T01:01:02;101528.06;;;5.68;72.63
41596;BME280;27283;52.504;13.358;2024-02-14T01:04:14;101534.31;;;5.80;71.29
41596;BME280;27283;52.504;13.358;2024-02-14T01:07:26;101533.63;;;5.89;71.74
41596;BME280;27283;52.504;13.358;2024-02-14T01:10:39;101528.28;;;5.89;71.55
41596;BME280;27283;52.504;13.358;2024-02-14T01:13:51;101530.94;;;6.13;70.57
41596;BME280;27283;52.504;13.358;2024-02-14T01:24:06;101512.75;;;5.59;72.80
41596;BME280;27283;52.504;13.358;2024-02-14T01:26:40;101511.38;;;5.77;71.90
41596;BME280;27283;52.504;13.358;2024-02-14T01:29:11;101512.63;;;5.96;70.86
41596;BME280;27283;52.504;13.358;2024-02-14T01:31:45;101509.47;;;5.91;70.91
41596;BME280;27283;52.504;13.358;2024-02-14T01:34:18;101507.53;;;5.57;72.68
41596;BME280;27283;52.504;13.358;2024-02-14T01:36:51;101511.25;;;5.79;71.80
41596;BME280;27283;52.504;13.358;2024-02-14T01:39:25;101498.50;;;5.47;73.42
41596;BME280;27283;52.504;13.358;2024-02-14T01:41:58;101497.75;;;5.69;72.55
41596;BME280;27283;52.504;13.358;2024-02-14T01:44:29;101490.25;;;5.74;72.55
41596;BME280;27283;52.504;13.358;2024-02-14T01:47:02;101488.53;;;5.73;71.88
41596;BME280;27283;52.504;13.358;2024-02-14T01:49:35;101493.41;;;6.15;70.67
41596;BME280;27283;52.504;13.358;2024-02-14T01:52:07;101497.81;;;5.92;71.35
41596;BME280;27283;52.504;13.358;2024-02-14T01:54:42;101487.06;;;5.69;71.88
41596;BME280;27283;52.504;13.358;2024-02-14T01:57:15;101485.53;;;5.78;72.08
41596;BME280;27283;52.504;13.358;2024-02-14T01:59:47;101490.66;;;5.92;72.08
41596;BME280;27283;52.504;13.358;2024-02-14T02:02:22;101491.88;;;5.88;71.67
41596;BME280;27283;52.504;13.358;2024-02-14T02:04:55;101487.41;;;5.64;71.72
41596;BME280;27283;52.504;13.358;2024-02-14T02:07:32;101488.59;;;5.96;71.34
41596;BME280;27283;52.504;13.358;2024-02-14T02:10:11;101479.44;;;5.16;74.13
41596;BME280;27283;52.504;13.358;2024-02-14T02:12:43;101479.72;;;5.48;73.14
41596;BME280;27283;52.504;13.358;2024-02-14T02:15:16;101473.94;;;5.66;72.94
41596;BME280;27283;52.504;13.358;2024-02-14T02:17:48;101467.53;;;5.68;72.25
41596;BME280;27283;52.504;13.358;2024-02-14T02:20:22;101463.97;;;5.45;73.38
41596;BME280;27283;52.504;13.358;2024-02-14T02:23:00;101463.41;;;5.64;72.38
41596;BME280;27283;52.504;13.358;2024-02-14T02:25:32;101471.53;;;5.63;72.44
41596;BME280;27283;52.504;13.358;2024-02-14T02:28:05;101460.72;;;5.29;74.39
41596;BME280;27283;52.504;13.358;2024-02-14T02:30:38;101461.19;;;5.58;73.13
41596;BME280;27283;52.504;13.358;2024-02-14T02:33:10;101459.75;;;5.54;73.06
41596;BME280;27283;52.504;13.358;2024-02-14T02:35:43;101460.72;;;5.53;72.99
41596;BME280;27283;52.504;13.358;2024-02-14T02:38:19;101465.53;;;5.48;73.64
41596;BME280;27283;52.504;13.358;2024-02-14T02:40:51;101463.91;;;5.70;72.69
41596;BME280;27283;52.504;13.358;2024-02-14T02:43:24;101468.91;;;5.85;71.90
41596;BME280;27283;52.504;13.358;2024-02-14T02:45:57;101454.47;;;5.41;73.35
41596;BME280;27283;52.504;13.358;2024-02-14T02:48:30;101451.81;;;4.93;74.80
41596;BME280;27283;52.504;13.358;2024-02-14T02:51:02;101448.81;;;5.22;73.70
41596;BME280;27283;52.504;13.358;2024-02-14T02:53:39;101452.97;;;5.26;74.63
41596;BME280;27283;52.504;13.358;2024-02-14T02:56:11;101450.56;;;5.10;75.69
41596;BME280;27283;52.504;13.358;2024-02-14T02:58:44;101457.63;;;5.46;73.42
41596;BME280;27283;52.504;13.358;2024-02-14T03:01:17;101449.84;;;5.32;74.21
41596;BME280;27283;52.504;13.358;2024-02-14T03:03:50;101453.63;;;5.41;74.26
41596;BME280;27283;52.504;13.358;2024-02-14T03:06:22;101437.50;;;5.42;74.59
41596;BME280;27283;52.504;13.358;2024-02-14T03:08:59;101448.13;;;5.07;75.18
41596;BME280;27283;52.504;13.358;2024-02-14T03:11:31;101440.34;;;4.79;75.58
41596;BME280;27283;52.504;13.358;2024-02-14T03:14:06;101434.69;;;5.08;76.16
41596;BME280;27283;52.504;13.358;2024-02-14T03:16:39;101435.47;;;4.97;75.86
41596;BME280;27283;52.504;13.358;2024-02-14T03:19:12;101434.63;;;4.73;76.60
41596;BME280;27283;52.504;13.358;2024-02-14T03:21:44;101430.75;;;5.01;75.67
41596;BME280;27283;52.504;13.358;2024-02-14T03:24:19;101432.66;;;5.12;75.85
41596;BME280;27283;52.504;13.358;2024-02-14T03:26:54;101433.59;;;4.87;76.47
41596;BME280;27283;52.504;13.358;2024-02-14T03:29:27;101432.53;;;5.13;75.41
41596;BME280;27283;52.504;13.358;2024-02-14T03:31:59;101427.09;;;5.15;75.13
41596;BME280;27283;52.504;13.358;2024-02-14T03:34:34;101420.09;;;4.77;76.77
41596;BME280;27283;52.504;13.358;2024-02-14T03:37:06;101419.47;;;4.97;76.12
41596;BME280;27283;52.504;13.358;2024-02-14T03:39:41;101428.22;;;5.00;75.80
41596;BME280;27283;52.504;13.358;2024-02-14T03:42:14;101416.31;;;4.92;76.44
41596;BME280;27283;52.504;13.358;2024-02-14T03:44:49;101414.22;;;5.09;76.54
41596;BME280;27283;52.504;13.358;2024-02-14T03:47:21;101409.41;;;5.14;75.46
41596;BME280;27283;52.504;13.358;2024-02-14T03:49:54;101417.56;;;5.59;74.05
41596;BME280;27283;52.504;13.358;2024-02-14T03:52:26;101417.66;;;5.22;75.45
41596;BME280;27283;52.504;13.358;2024-02-14T03:55:05;101405.44;;;5.20;75.91
41596;BME280;27283;52.504;13.358;2024-02-14T03:57:38;101396.19;;;5.12;75.74
41596;BME280;27283;52.504;13.358;2024-02-14T04:00:12;101395.91;;;5.40;74.67
41596;BME280;27283;52.504;13.358;2024-02-14T04:02:45;101391.47;;;5.52;74.01
41596;BME280;27283;52.504;13.358;2024-02-14T04:05:18;101388.31;;;5.22;75.45
41596;BME280;27283;52.504;13.358;2024-02-14T04:07:51;101406.63;;;5.15;76.02
41596;BME280;27283;52.504;13.358;2024-02-14T04:10:26;101407.31;;;4.69;76.06
41596;BME280;27283;52.504;13.358;2024-02-14T04:12:58;101418.47;;;4.87;76.31
41596;BME280;27283;52.504;13.358;2024-02-14T04:15:30;101426.00;;;4.93;76.48
41596;BME280;27283;52.504;13.358;2024-02-14T04:18:03;101429.09;;;5.00;76.24
41596;BME280;27283;52.504;13.358;2024-02-14T04:20:36;101430.44;;;5.06;76.28
41596;BME280;27283;52.504;13.358;2024-02-14T04:23:08;101417.22;;;5.28;75.41
41596;BME280;27283;52.504;13.358;2024-02-14T04:25:43;101420.09;;;4.77;77.02
41596;BME280;27283;52.504;13.358;2024-02-14T04:28:16;101416.72;;;4.99;77.15
41596;BME280;27283;52.504;13.358;2024-02-14T04:30:48;101407.47;;;4.92;76.44
41596;BME280;27283;52.504;13.358;2024-02-14T04:33:17;101408.78;;;4.86;77.46
41596;BME280;27283;52.504;13.358;2024-02-14T04:35:50;101407.50;;;5.27;75.51
41596;BME280;27283;52.504;13.358;2024-02-14T04:38:22;101411.09;;;4.91;76.08
41596;BME280;27283;52.504;13.358;2024-02-14T04:40:58;101406.84;;;4.88;76.98
41596;BME280;27283;52.504;13.358;2024-02-14T04:43:29;101408.53;;;5.38;75.66
41596;BME280;27283;52.504;13.358;2024-02-14T04:46:02;101406.66;;;5.27;75.71
41596;BME280;27283;52.504;13.358;2024-02-14T04:48:36;101402.88;;;4.94;76.81
41596;BME280;27283;52.504;13.358;2024-02-14T04:51:08;101390.38;;;5.19;75.64
41596;BME280;27283;52.504;13.358;2024-02-14T04:53:41;101400.50;;;5.02;77.16
41596;BME280;27283;52.504;13.358;2024-02-14T04:56:16;101399.06;;;5.09;76.43
41596;BME280;27283;52.504;13.358;2024-02-14T04:58:48;101392.72;;;4.75;77.82
41596;BME280;27283;52.504;13.358;2024-02-14T05:01:18;101391.50;;;5.27;76.56
41596;BME280;27283;52.504;13.358;2024-02-14T05:03:50;101386.06;;;5.29;75.98
41596;BME280;27283;52.504;13.358;2024-02-14T05:06:22;101380.31;;;5.22;76.32
41596;BME280;27283;52.504;13.358;2024-02-14T05:08:54;101382.06;;;4.99;76.83
41596;BME280;27283;52.504;13.358;2024-02-14T05:11:29;101368.63;;;5.01;76.86
41596;BME280;27283;52.504;13.358;2024-02-14T05:14:02;101374.63;;;5.15;76.58
41596;BME280;27283;52.504;13.358;2024-02-14T05:16:34;101375.50;;;5.27;75.96
41596;BME280;27283;52.504;13.358;2024-02-14T05:19:06;101372.97;;;5.26;76.05
41596;BME280;27283;52.504;13.358;2024-02-14T05:21:39;101369.34;;;5.27;76.08
41596;BME280;27283;52.504;13.358;2024-02-14T05:24:10;101361.47;;;5.37;75.96
41596;BME280;27283;52.504;13.358;2024-02-14T05:26:46;101359.34;;;5.53;75.48
41596;BME280;27283;52.504;13.358;2024-02-14T05:29:18;101358.22;;;5.33;75.74
41596;BME280;27283;52.504;13.358;2024-02-14T05:31:51;101353.66;;;5.69;74.08
41596;BME280;27283;52.504;13.358;2024-02-14T05:34:24;101353.16;;;5.64;75.37
41596;BME280;27283;52.504;13.358;2024-02-14T05:36:58;101352.66;;;5.47;75.26
41596;BME280;27283;52.504;13.358;2024-02-14T05:39:30;101343.84;;;5.81;74.01
41596;BME280;27283;52.504;13.358;2024-02-14T05:42:05;101352.13;;;5.31;76.15
41596;BME280;27283;52.504;13.358;2024-02-14T05:44:37;101339.78;;;5.41;75.78
41596;BME280;27283;52.504;13.358;2024-02-14T05:47:10;101331.72;;;5.54;75.35
41596;BME280;27283;52.504;13.358;2024-02-14T05:49:44;101335.41;;;5.40;75.68
41596;BME280;27283;52.504;13.358;2024-02-14T05:52:16;101332.00;;;6.19;73.64
41596;BME280;27283;52.504;13.358;2024-02-14T05:54:48;101337.25;;;5.40;74.41
41596;BME280;27283;52.504;13.358;2024-02-14T05:57:23;101329.53;;;5.59;75.08
41596;BME280;27283;52.504;13.358;2024-02-14T05:59:55;101331.66;;;6.01;73.49
41596;BME280;27283;52.504;13.358;2024-02-14T06:02:28;101343.19;;;5.43;75.90
41596;BME280;27283;52.504;13.358;2024-02-14T06:05:00;101340.56;;;5.66;74.52
41596;BME280;27283;52.504;13.358;2024-02-14T06:07:32;101334.13;;;5.57;74.80
41596;BME280;27283;52.504;13.358;2024-02-14T06:10:06;101337.72;;;5.33;75.78
41596;BME280;27283;52.504;13.358;2024-02-14T06:12:41;101333.22;;;5.23;77.28
41596;BME280;27283;52.504;13.358;2024-02-14T06:15:14;101333.56;;;5.18;76.63
41596;BME280;27283;52.504;13.358;2024-02-14T06:17:47;101329.59;;;4.75;78.42
41596;BME280;27283;52.504;13.358;2024-02-14T06:20:20;101329.97;;;5.42;76.33
41596;BME280;27283;52.504;13.358;2024-02-14T06:22:53;101327.69;;;5.48;75.61
41596;BME280;27283;52.504;13.358;2024-02-14T06:25:33;101329.75;;;5.56;75.05
41596;BME280;27283;52.504;13.358;2024-02-14T06:28:09;101333.22;;;5.34;76.71
41596;BME280;27283;52.504;13.358;2024-02-14T06:30:41;101338.41;;;5.24;76.37
41596;BME280;27283;52.504;13.358;2024-02-14T06:33:14;101337.97;;;5.42;76.08
41596;BME280;27283;52.504;13.358;2024-02-14T06:35:47;101336.31;;;5.75;75.65
41596;BME280;27283;52.504;13.358;2024-02-14T06:38:20;101336.22;;;5.65;74.57
41596;BME280;27283;52.504;13.358;2024-02-14T06:40:53;101338.25;;;5.84;75.14
41596;BME280;27283;52.504;13.358;2024-02-14T06:43:28;101335.88;;;6.03;73.45
41596;BME280;27283;52.504;13.358;2024-02-14T06:46:01;101322.63;;;6.36;73.01
41596;BME280;27283;52.504;13.358;2024-02-14T06:48:34;101328.97;;;6.12;73.65
41596;BME280;27283;52.504;13.358;2024-02-14T06:51:07;101315.97;;;6.08;74.17
41596;BME280;27283;52.504;13.358;2024-02-14T06:53:40;101318.53;;;5.98;73.04
41596;BME280;27283;52.504;13.358;2024-02-14T06:57:13;101304.44;;;6.30;73.29
41596;BME280;27283;52.504;13.358;2024-02-14T06:59:49;101313.41;;;6.72;71.24
41596;BME280;27283;52.504;13.358;2024-02-14T07:02:22;101314.75;;;6.23;72.58
41596;BME280;27283;52.504;13.358;2024-02-14T07:04:57;101312.22;;;5.99;74.32
41596;BME280;27283;52.504;13.358;2024-02-14T07:07:31;101303.22;;;5.77;74.70
41596;BME280;27283;52.504;13.358;2024-02-14T07:10:05;101304.47;;;6.07;73.30
41596;BME280;27283;52.504;13.358;2024-02-14T07:12:38;101309.25;;;5.45;75.45
41596;BME280;27283;52.504;13.358;2024-02-14T07:15:13;101304.31;;;5.97;75.00
41596;BME280;27283;52.504;13.358;2024-02-14T07:17:46;101294.38;;;5.54;76.11
41596;BME280;27283;52.504;13.358;2024-02-14T07:20:19;101297.25;;;5.40;76.68
41596;BME280;27283;52.504;13.358;2024-02-14T07:22:51;101302.97;;;5.92;75.62
41596;BME280;27283;52.504;13.358;2024-02-14T07:25:26;101302.75;;;6.06;74.40
41596;BME280;27283;52.504;13.358;2024-02-14T07:28:08;101307.34;;;5.93;75.17
41596;BME280;27283;52.504;13.358;2024-02-14T07:30:44;101310.84;;;5.82;74.88
41596;BME280;27283;52.504;13.358;2024-02-14T07:33:16;101313.53;;;6.16;73.99
41596;BME280;27283;52.504;13.358;2024-02-14T07:35:49;101322.00;;;6.32;73.32
41596;BME280;27283;52.504;13.358;2024-02-14T07:38:22;101327.34;;;6.76;71.46
41596;BME280;27283;52.504;13.358;2024-02-14T07:40:55;101335.81;;;6.92;70.40
41596;BME280;27283;52.504;13.358;2024-02-14T07:43:27;101335.50;;;7.07;70.11
41596;BME280;27283;52.504;13.358;2024-02-14T07:46:03;101338.13;;;7.39;68.54
41596;BME280;27283;52.504;13.358;2024-02-14T07:48:36;101337.06;;;7.31;68.63
41596;BME280;27283;52.504;13.358;2024-02-14T07:51:10;101341.16;;;7.46;68.61
41596;BME280;27283;52.504;13.358;2024-02-14T07:53:43;101331.97;;;7.70;67.09
41596;BME280;27283;52.504;13.358;2024-02-14T07:56:17;101328.56;;;7.16;69.40
41596;BME280;27283;52.504;13.358;2024-02-14T07:58:50;101323.50;;;7.43;68.54
41596;BME280;27283;52.504;13.358;2024-02-14T08:01:26;101324.47;;;7.63;67.88
41596;BME280;27283;52.504;13.358;2024-02-14T08:03:59;101325.59;;;7.61;67.80
41596;BME280;27283;52.504;13.358;2024-02-14T08:06:32;101316.47;;;7.42;68.03
41596;BME280;27283;52.504;13.358;2024-02-14T08:09:05;101323.81;;;7.50;67.96
41596;BME280;27283;52.504;13.358;2024-02-14T08:11:40;101319.78;;;7.56;68.12
41596;BME280;27283;52.504;13.358;2024-02-14T08:14:13;101319.66;;;7.57;68.23
41596;BME280;27283;52.504;13.358;2024-02-14T08:16:49;101310.53;;;7.18;70.67
41596;BME280;27283;52.504;13.358;2024-02-14T08:19:22;101303.00;;;6.90;72.07
41596;BME280;27283;52.504;13.358;2024-02-14T08:22:49;101314.03;;;6.97;71.95
41596;BME280;27283;52.504;13.358;2024-02-14T08:25:23;101298.00;;;7.39;72.52
41596;BME280;27283;52.504;13.358;2024-02-14T08:28:09;101294.75;;;7.36;72.17
41596;BME280;27283;52.504;13.358;2024-02-14T08:30:43;101301.03;;;7.25;73.14
41596;BME280;27283;52.504;13.358;2024-02-14T08:37:12;101294.84;;;7.55;72.89
41596;BME280;27283;52.504;13.358;2024-02-14T08:39:46;101292.31;;;7.54;72.78
41596;BME280;27283;52.504;13.358;2024-02-14T08:42:18;101294.78;;;7.45;73.49
41596;BME280;27283;52.504;13.358;2024-02-14T08:44:52;101295.69;;;7.56;73.23
41596;BME280;27283;52.504;13.358;2024-02-14T08:47:25;101293.81;;;8.08;71.70
41596;BME280;27283;52.504;13.358;2024-02-14T08:49:58;101290.31;;;8.18;71.16
41596;BME280;27283;52.504;13.358;2024-02-14T08:52:35;101293.75;;;7.98;72.39
41596;BME280;27283;52.504;13.358;2024-02-14T08:55:08;101295.25;;;8.12;71.65
41596;BME280;27283;52.504;13.358;2024-02-14T08:57:46;101289.38;;;8.38;71.59
41596;BME280;27283;52.504;13.358;2024-02-14T09:00:20;101292.44;;;8.24;72.34
41596;BME280;27283;52.504;13.358;2024-02-14T09:02:53;101290.78;;;8.42;71.90
41596;BME280;27283;52.504;13.358;2024-02-14T09:05:26;101293.06;;;8.47;72.57
41596;BME280;27283;52.504;13.358;2024-02-14T09:08:04;101285.78;;;8.68;71.80
41596;BME280;27283;52.504;13.358;2024-02-14T09:10:38;101295.22;;;8.63;71.40
41596;BME280;27283;52.504;13.358;2024-02-14T09:13:10;101289.75;;;8.24;73.95
41596;BME280;27283;52.504;13.358;2024-02-14T09:15:44;101294.56;;;8.30;73.83
41596;BME280;27283;52.504;13.358;2024-02-14T09:18:17;101296.41;;;8.39;74.07
41596;BME280;27283;52.504;13.358;2024-02-14T09:20:51;101300.72;;;8.51;73.30
41596;BME280;27283;52.504;13.358;2024-02-14T09:23:26;101292.72;;;8.21;75.19
41596;BME280;27283;52.504;13.358;2024-02-14T09:26:00;101285.91;;;8.67;75.16
41596;BME280;27283;52.504;13.358;2024-02-14T09:28:33;101299.31;;;8.67;75.06
41596;BME280;27283;52.504;13.358;2024-02-14T09:31:07;101289.50;;;8.37;77.14
41596;BME280;27283;52.504;13.358;2024-02-14T09:33:40;101292.22;;;8.46;78.17
41596;BME280;27283;52.504;13.358;2024-02-14T09:36:15;101283.38;;;8.65;78.25
41596;BME280;27283;52.504;13.358;2024-02-14T09:38:51;101292.75;;;8.30;80.18
41596;BME280;27283;52.504;13.358;2024-02-14T09:41:31;101283.72;;;8.41;79.90
41596;BME280;27283;52.504;13.358;2024-02-14T09:44:06;101283.78;;;8.71;80.85
41596;BME280;27283;52.504;13.358;2024-02-14T09:46:40;101281.94;;;8.61;80.45
41596;BME280;27283;52.504;13.358;2024-02-14T09:49:14;101288.88;;;8.74;79.38
41596;BME280;27283;52.504;13.358;2024-02-14T09:51:49;101284.19;;;8.46;81.71
41596;BME280;27283;52.504;13.358;2024-02-14T09:54:25;101289.84;;;8.63;82.58
41596;BME280;27283;52.504;13.358;2024-02-14T09:57:02;101295.44;;;8.30;85.24
41596;BME280;27283;52.504;13.358;2024-02-14T09:59:35;101285.66;;;8.20;86.15
41596;BME280;27283;52.504;13.358;2024-02-14T10:02:09;101284.13;;;8.27;85.42
41596;BME280;27283;52.504;13.358;2024-02-14T10:04:42;101285.19;;;8.55;85.86
41596;BME280;27283;52.504;13.358;2024-02-14T10:07:15;101279.66;;;8.47;86.46
41596;BME280;27283;52.504;13.358;2024-02-14T10:10:12;101290.78;;;8.42;86.78
41596;BME280;27283;52.504;13.358;2024-02-14T10:13:38;101280.38;;;8.59;87.59
41596;BME280;27283;52.504;13.358;2024-02-14T10:16:11;101277.09;;;8.26;88.19
41596;BME280;27283;52.504;13.358;2024-02-14T10:18:44;101279.13;;;8.53;86.37
41596;BME280;27283;52.504;13.358;2024-02-14T10:21:17;101276.03;;;8.58;87.55
41596;BME280;27283;52.504;13.358;2024-02-14T10:23:51;101282.78;;;9.11;86.64
41596;BME280;27283;52.504;13.358;2024-02-14T10:26:30;101270.22;;;8.92;86.40
41596;BME280;27283;52.504;13.358;2024-02-14T10:29:03;101272.09;;;8.72;86.54
41596;BME280;27283;52.504;13.358;2024-02-14T10:31:40;101272.63;;;8.75;87.68
41596;BME280;27283;52.504;13.358;2024-02-14T10:34:13;101264.88;;;8.82;87.16
41596;BME280;27283;52.504;13.358;2024-02-14T10:36:47;101276.31;;;8.84;87.31
41596;BME280;27283;52.504;13.358;2024-02-14T10:39:21;101266.13;;;8.87;88.24
41596;BME280;27283;52.504;13.358;2024-02-14T10:41:57;101268.22;;;8.35;88.21
41596;BME280;27283;52.504;13.358;2024-02-14T10:44:31;101264.59;;;8.85;88.26
41596;BME280;27283;52.504;13.358;2024-02-14T10:47:07;101257.84;;;8.51;89.35
41596;BME280;27283;52.504;13.358;2024-02-14T10:49:44;101261.06;;;8.55;89.75
41596;BME280;27283;52.504;13.358;2024-02-14T10:52:19;101265.50;;;8.25;90.11
41596;BME280;27283;52.504;13.358;2024-02-14T10:54:58;101260.50;;;8.51;89.37
41596;BME280;27283;52.504;13.358;2024-02-14T10:57:36;101263.47;;;8.97;89.72
41596;BME280;27283;52.504;13.358;2024-02-14T11:00:10;101259.38;;;9.03;88.55
41596;BME280;27283;52.504;13.358;2024-02-14T11:02:46;101251.69;;;9.28;87.61
41596;BME280;27283;52.504;13.358;2024-02-14T11:05:21;101260.41;;;9.39;88.98
41596;BME280;27283;52.504;13.358;2024-02-14T11:07:55;101258.31;;;9.33;88.52
41596;BME280;27283;52.504;13.358;2024-02-14T11:10:28;101254.69;;;9.62;88.93
41596;BME280;27283;52.504;13.358;2024-02-14T11:13:10;101257.59;;;9.79;87.76
41596;BME280;27283;52.504;13.358;2024-02-14T11:15:46;101251.34;;;9.50;86.64
41596;BME280;27283;52.504;13.358;2024-02-14T11:18:25;101249.78;;;9.48;88.44
41596;BME280;27283;52.504;13.358;2024-02-14T11:21:03;101246.50;;;9.91;86.03
41596;BME280;27283;52.504;13.358;2024-02-14T11:23:37;101245.81;;;9.89;86.22
41596;BME280;27283;52.504;13.358;2024-02-14T11:26:15;101247.31;;;9.64;85.75
41596;BME280;27283;52.504;13.358;2024-02-14T11:29:06;101255.59;;;9.81;86.20
41596;BME280;27283;52.504;13.358;2024-02-14T11:31:40;101248.19;;;9.65;88.41
41596;BME280;27283;52.504;13.358;2024-02-14T11:34:18;101249.78;;;9.48;89.83
41596;BME280;27283;52.504;13.358;2024-02-14T11:36:56;101249.94;;;9.46;88.05
41596;BME280;27283;52.504;13.358;2024-02-14T11:39:30;101244.84;;;9.53;87.64
41596;BME280;27283;52.504;13.358;2024-02-14T11:42:07;101240.72;;;9.86;85.90
41596;BME280;27283;52.504;13.358;2024-02-14T11:44:46;101240.31;;;9.53;88.86
41596;BME280;27283;52.504;13.358;2024-02-14T11:47:21;101246.16;;;9.29;88.65
41596;BME280;27283;52.504;13.358;2024-02-14T11:49:55;101247.94;;;9.86;87.23
41596;BME280;27283;52.504;13.358;2024-02-14T11:52:30;101250.13;;;9.72;87.56
41596;BME280;27283;52.504;13.358;2024-02-14T11:55:04;101245.44;;;9.47;89.12
41596;BME280;27283;52.504;13.358;2024-02-14T11:57:54;101249.91;;;9.84;87.51
41596;BME280;27283;52.504;13.358;2024-02-14T12:00:32;101243.94;;;9.90;88.02
41596;BME280;27283;52.504;13.358;2024-02-14T12:03:07;101248.66;;;9.78;88.13
41596;BME280;27283;52.504;13.358;2024-02-14T12:05:44;101246.84;;;9.41;89.77
41596;BME280;27283;52.504;13.358;2024-02-14T12:08:19;101241.56;;;9.59;92.27
41596;BME280;27283;52.504;13.358;2024-02-14T12:10:55;101245.66;;;9.63;90.90
41596;BME280;27283;52.504;13.358;2024-02-14T12:13:30;101236.34;;;9.48;91.25
41596;BME280;27283;52.504;13.358;2024-02-14T12:16:10;101246.13;;;9.39;92.67
41596;BME280;27283;52.504;13.358;2024-02-14T12:18:44;101236.22;;;9.49;93.00
41596;BME280;27283;52.504;13.358;2024-02-14T12:21:17;101244.56;;;9.46;92.04
41596;BME280;27283;52.504;13.358;2024-02-14T12:23:58;101239.03;;;9.85;93.37
41596;BME280;27283;52.504;13.358;2024-02-14T12:26:32;101247.09;;;9.48;93.31
41596;BME280;27283;52.504;13.358;2024-02-14T12:29:05;101237.75;;;9.89;93.89
41596;BME280;27283;52.504;13.358;2024-02-14T12:31:44;101240.44;;;9.89;90.81
41596;BME280;27283;52.504;13.358;2024-02-14T12:34:16;101240.38;;;9.71;92.82
41596;BME280;27283;52.504;13.358;2024-02-14T12:36:53;101236.09;;;9.79;94.15
41596;BME280;27283;52.504;13.358;2024-02-14T12:39:26;101238.50;;;10.27;89.92
41596;BME280;27283;52.504;13.358;2024-02-14T12:41:59;101243.56;;;10.31;91.88
41596;BME280;27283;52.504;13.358;2024-02-14T12:44:32;101241.59;;;10.05;92.15
41596;BME280;27283;52.504;13.358;2024-02-14T12:47:08;101239.56;;;10.17;92.10
41596;BME280;27283;52.504;13.358;2024-02-14T12:49:42;101244.75;;;10.00;91.58
41596;BME280;27283;52.504;13.358;2024-02-14T12:52:14;101249.03;;;9.93;92.05
41596;BME280;27283;52.504;13.358;2024-02-14T12:54:47;101241.13;;;9.91;93.38
41596;BME280;27283;52.504;13.358;2024-02-14T12:57:21;101248.63;;;10.43;92.13
41596;BME280;27283;52.504;13.358;2024-02-14T13:00:08;101245.53;;;10.56;89.93
41596;BME280;27283;52.504;13.358;2024-02-14T13:02:43;101251.84;;;10.83;88.88
41596;BME280;27283;52.504;13.358;2024-02-14T13:05:17;101245.56;;;10.28;91.23
41596;BME280;27283;52.504;13.358;2024-02-14T13:07:49;101242.00;;;10.38;90.42
41596;BME280;27283;52.504;13.358;2024-02-14T13:10:22;101245.22;;;10.59;89.07
41596;BME280;27283;52.504;13.358;2024-02-14T13:12:56;101245.31;;;10.22;91.84
41596;BME280;27283;52.504;13.358;2024-02-14T13:15:28;101247.69;;;10.35;92.08
41596;BME280;27283;52.504;13.358;2024-02-14T13:18:04;101246.72;;;10.26;92.38
41596;BME280;27283;52.504;13.358;2024-02-14T13:20:37;101241.41;;;9.88;94.05
41596;BME280;27283;52.504;13.358;2024-02-14T13:23:12;101245.44;;;10.02;95.11
41596;BME280;27283;52.504;13.358;2024-02-14T13:25:45;101251.88;;;10.19;92.64
41596;BME280;27283;52.504;13.358;2024-02-14T13:28:20;101256.94;;;9.94;94.96
41596;BME280;27283;52.504;13.358;2024-02-14T13:30:53;101248.53;;;10.07;95.44
41596;BME280;27283;52.504;13.358;2024-02-14T13:33:29;101248.34;;;9.91;94.34
41596;BME280;27283;52.504;13.358;2024-02-14T13:36:02;101254.16;;;10.42;93.49
41596;BME280;27283;52.504;13.358;2024-02-14T13:38:35;101251.91;;;10.09;94.59
41596;BME280;27283;52.504;13.358;2024-02-14T13:41:08;101247.16;;;10.21;95.95
41596;BME280;27283;52.504;13.358;2024-02-14T13:43:42;101256.06;;;10.22;96.11
41596;BME280;27283;52.504;13.358;2024-02-14T13:46:14;101252.91;;;10.26;93.47